createdAt,value
2017-11-26T00:00:17.449Z,100997.55
2017-11-26T00:02:44.960Z,100999.93
2017-11-26T00:05:12.473Z,101002.77
2017-11-26T00:07:40.054Z,101004.08
2017-11-26T00:10:07.597Z,101017.69
2017-11-26T00:12:35.139Z,101018.61
2017-11-26T00:15:02.713Z,101017.24
2017-11-26T00:17:30.253Z,101019.09
2017-11-26T00:19:57.828Z,101030.86
2017-11-26T00:22:25.367Z,101013.16
2017-11-26T00:24:52.942Z,101032.47
2017-11-26T00:27:20.464Z,101027.47
2017-11-26T00:29:47.992Z,101031.18
2017-11-26T00:32:15.549Z,101016.89
2017-11-26T00:34:43.065Z,101011.62
2017-11-26T00:37:10.589Z,101002.75
2017-11-26T00:39:38.125Z,100993.63
2017-11-26T00:42:05.698Z,100994.55
2017-11-26T00:44:33.227Z,100994.73
2017-11-26T00:47:00.757Z,100993.59
2017-11-26T00:49:28.342Z,100996.69
2017-11-26T00:51:55.871Z,101003.41
2017-11-26T00:54:23.389Z,101000.09
2017-11-26T00:56:50.963Z,101004.03
2017-11-26T00:59:18.491Z,100992.98
2017-11-26T01:01:46.019Z,100979.52
2017-11-26T01:04:13.586Z,100975.35
2017-11-26T01:06:41.114Z,100967.55
2017-11-26T01:09:08.631Z,100973.74
2017-11-26T01:11:36.294Z,100992.28
2017-11-26T01:14:03.843Z,101015.17
2017-11-26T01:16:31.367Z,101020.09
2017-11-26T01:18:58.910Z,101008.95
2017-11-26T01:21:26.455Z,101019.73
2017-11-26T01:23:54.059Z,101028.90
2017-11-26T01:26:21.588Z,101027.75
2017-11-26T01:28:49.107Z,101034.42
2017-11-26T01:31:16.666Z,101043.25
2017-11-26T01:33:44.197Z,101042.73
2017-11-26T01:36:11.769Z,101037.66
2017-11-26T01:38:39.339Z,101041.19
2017-11-26T01:41:06.868Z,101044.92
2017-11-26T01:43:34.423Z,101040.01
2017-11-26T01:46:01.946Z,101029.91
2017-11-26T01:48:29.726Z,101018.62
2017-11-26T01:50:57.241Z,101005.12
2017-11-26T01:53:24.769Z,101001.70
2017-11-26T01:55:52.366Z,100987.62
2017-11-26T01:58:19.960Z,100991.69
2017-11-26T02:00:50.316Z,101003.66
2017-11-26T02:03:17.900Z,101001.22
2017-11-26T02:05:45.479Z,100995.44
2017-11-26T02:08:13.019Z,100989.30
2017-11-26T02:10:40.575Z,100990.48
2017-11-26T02:13:08.108Z,100992.04
2017-11-26T02:15:35.664Z,100987.21
2017-11-26T02:18:03.224Z,100993.89
2017-11-26T02:20:30.806Z,100994.66
2017-11-26T02:22:59.352Z,100998.63
2017-11-26T02:25:27.122Z,100991.84
2017-11-26T02:27:54.685Z,100998.31
2017-11-26T02:30:22.218Z,101004.03
2017-11-26T02:33:01.650Z,101000.93
2017-11-26T02:35:39.028Z,101003.83
2017-11-26T02:38:06.614Z,101011.04
2017-11-26T02:40:34.154Z,101008.77
2017-11-26T02:43:01.752Z,101007.52
2017-11-26T02:45:29.310Z,101017.80
2017-11-26T02:47:56.851Z,101014.10
2017-11-26T02:50:24.459Z,101016.63
2017-11-26T02:52:52.064Z,101010.24
2017-11-26T02:55:19.593Z,101015.43
2017-11-26T02:57:47.184Z,101019.76
2017-11-26T03:00:14.779Z,101013.97
2017-11-26T03:02:42.300Z,101013.06
2017-11-26T03:05:09.834Z,101014.70
2017-11-26T03:07:37.403Z,101010.89
2017-11-26T03:10:04.963Z,101004.97
2017-11-26T03:12:32.549Z,100999.09
2017-11-26T03:15:00.100Z,100999.09
2017-11-26T03:17:27.648Z,101007.23
2017-11-26T03:19:55.204Z,100998.58
2017-11-26T03:22:22.733Z,101001.41
2017-11-26T03:24:50.479Z,100993.66
2017-11-26T03:27:18.021Z,100993.61
2017-11-26T03:29:45.608Z,101004.51
2017-11-26T03:32:13.323Z,100995.82
2017-11-26T03:34:40.853Z,100996.78
2017-11-26T03:37:08.409Z,101000.05
2017-11-26T03:39:36.018Z,101001.30
2017-11-26T03:42:03.547Z,101005.11
2017-11-26T03:44:31.106Z,101001.44
2017-11-26T03:46:58.782Z,100998.94
2017-11-26T03:49:26.328Z,100998.09
2017-11-26T03:51:53.888Z,100997.15
2017-11-26T03:54:21.443Z,100995.19
2017-11-26T03:56:48.974Z,101001.09
2017-11-26T03:59:16.712Z,100997.53
2017-11-26T04:01:44.243Z,100996.12
2017-11-26T04:04:11.771Z,100989.13
2017-11-26T04:06:39.519Z,100990.21
2017-11-26T04:09:07.065Z,100987.98
2017-11-26T04:11:34.621Z,100987.56
2017-11-26T04:14:02.185Z,100979.45
2017-11-26T04:16:29.928Z,100989.31
2017-11-26T04:18:57.448Z,100992.70
2017-11-26T04:21:25.000Z,100986.02
2017-11-26T04:23:52.546Z,100992.30
2017-11-26T04:26:20.112Z,100994.62
2017-11-26T04:28:47.700Z,100992.41
2017-11-26T04:31:15.221Z,101003.49
2017-11-26T04:33:42.765Z,101000.25
2017-11-26T04:36:10.361Z,101000.70
2017-11-26T04:38:37.897Z,101006.78
2017-11-26T04:41:05.439Z,100996.73
2017-11-26T04:43:33.027Z,101007.52
2017-11-26T04:46:00.575Z,101003.77
2017-11-26T04:48:28.127Z,101000.42
2017-11-26T04:50:55.839Z,100998.84
2017-11-26T04:53:23.393Z,100996.64
2017-11-26T04:55:51.019Z,100994.66
2017-11-26T04:58:18.580Z,100988.47
2017-11-26T05:00:46.244Z,100995.52
2017-11-26T05:03:13.806Z,100999.05
2017-11-26T05:05:41.582Z,100993.91
2017-11-26T05:08:09.263Z,100995.20
2017-11-26T05:10:36.781Z,100991.28
2017-11-26T05:13:04.502Z,100993.06
2017-11-26T05:15:32.033Z,100989.65
2017-11-26T05:17:59.572Z,100993.81
2017-11-26T05:20:27.246Z,100992.89
2017-11-26T05:22:54.786Z,100991.99
2017-11-26T05:25:22.422Z,100989.69
2017-11-26T05:27:49.993Z,100986.48
2017-11-26T05:30:17.508Z,100995.92
2017-11-26T05:32:45.046Z,100991.96
2017-11-26T05:35:12.625Z,100999.73
2017-11-26T05:37:40.158Z,101001.88
2017-11-26T05:40:07.685Z,101000.92
2017-11-26T05:42:35.265Z,100999.84
2017-11-26T05:45:02.831Z,101006.80
2017-11-26T05:47:30.365Z,100996.31
2017-11-26T05:49:57.945Z,101003.66
2017-11-26T05:52:25.469Z,101003.18
2017-11-26T05:54:53.014Z,101015.83
2017-11-26T05:57:20.570Z,101019.01
2017-11-26T05:59:48.274Z,101020.13
2017-11-26T06:02:15.807Z,101012.54
2017-11-26T06:04:43.346Z,101020.08
2017-11-26T06:07:10.911Z,101027.45
2017-11-26T06:09:38.444Z,101034.05
2017-11-26T06:12:06.152Z,101031.38
2017-11-26T06:14:33.675Z,101019.77
2017-11-26T06:17:01.189Z,101013.59
2017-11-26T06:19:28.729Z,101009.79
2017-11-26T06:21:56.250Z,101008.17
2017-11-26T06:24:23.915Z,101014.27
2017-11-26T06:26:51.446Z,101020.70
2017-11-26T06:29:18.973Z,101018.09
2017-11-26T06:31:46.633Z,101032.05
2017-11-26T06:34:14.161Z,101008.76
2017-11-26T06:36:41.690Z,101017.91
2017-11-26T06:39:09.246Z,101012.76
2017-11-26T06:41:36.789Z,101017.70
2017-11-26T06:44:04.352Z,101025.45
2017-11-26T06:46:31.899Z,101020.89
2017-11-26T06:48:59.465Z,101021.22
2017-11-26T06:51:27.006Z,101019.00
2017-11-26T06:53:54.526Z,101026.50
2017-11-26T06:56:22.183Z,101031.14
2017-11-26T06:58:49.712Z,101032.77
2017-11-26T07:01:17.233Z,101039.86
2017-11-26T07:03:44.960Z,101031.88
2017-11-26T07:06:12.469Z,101041.39
2017-11-26T07:08:39.992Z,101044.34
2017-11-26T07:11:07.583Z,101052.56
2017-11-26T07:13:35.126Z,101045.66
2017-11-26T07:16:02.645Z,101045.95
2017-11-26T07:18:30.217Z,101041.73
2017-11-26T07:20:57.779Z,101037.84
2017-11-26T07:23:25.307Z,101042.41
2017-11-26T07:25:52.882Z,101040.48
2017-11-26T07:28:20.408Z,101047.75
2017-11-26T07:30:47.954Z,101043.03
2017-11-26T07:33:15.522Z,101045.13
2017-11-26T07:35:43.040Z,101070.51
2017-11-26T07:38:10.565Z,101071.23
2017-11-26T07:40:38.100Z,101074.08
2017-11-26T07:43:05.671Z,101088.69
2017-11-26T07:45:33.292Z,101091.68
2017-11-26T07:48:00.814Z,101102.23
2017-11-26T07:50:28.396Z,101098.29
2017-11-26T07:52:55.929Z,101104.50
2017-11-26T07:55:23.453Z,101095.90
2017-11-26T07:57:51.131Z,101108.88
2017-11-26T08:00:18.669Z,101115.39
2017-11-26T08:02:46.207Z,101121.19
2017-11-26T08:05:13.776Z,101118.01
2017-11-26T08:07:41.331Z,101118.52
2017-11-26T08:10:08.859Z,101117.30
2017-11-26T08:12:36.606Z,101130.31
2017-11-26T08:15:04.136Z,101128.84
2017-11-26T08:17:31.660Z,101125.91
2017-11-26T08:19:59.214Z,101129.47
2017-11-26T08:22:26.768Z,101126.40
2017-11-26T08:24:54.314Z,101137.69
2017-11-26T08:27:21.833Z,101132.27
2017-11-26T08:29:49.501Z,101137.98
2017-11-26T08:32:17.035Z,101142.69
2017-11-26T08:34:44.541Z,101141.44
2017-11-26T08:37:12.073Z,101140.06
2017-11-26T08:39:39.595Z,101140.14
2017-11-26T08:42:07.160Z,101137.63
2017-11-26T08:44:34.701Z,101145.87
2017-11-26T08:47:02.272Z,101146.28
2017-11-26T08:49:29.811Z,101151.81
2017-11-26T08:51:57.389Z,101145.94
2017-11-26T08:54:24.928Z,101146.58
2017-11-26T08:56:52.472Z,101148.19
2017-11-26T08:59:20.017Z,101154.12
2017-11-26T09:01:47.563Z,101162.12
2017-11-26T09:04:15.159Z,101167.78
2017-11-26T09:06:44.523Z,101166.84
2017-11-26T09:09:12.068Z,101174.09
2017-11-26T09:11:39.675Z,101168.58
2017-11-26T09:14:07.248Z,101176.95
2017-11-26T09:16:34.771Z,101180.58
2017-11-26T09:19:02.358Z,101184.70
2017-11-26T09:21:29.881Z,101194.56
2017-11-26T09:23:57.394Z,101191.66
2017-11-26T09:26:25.123Z,101192.13
2017-11-26T09:28:52.638Z,101187.81
2017-11-26T09:31:20.158Z,101191.94
2017-11-26T09:33:47.699Z,101191.89
2017-11-26T09:36:15.382Z,101194.45
2017-11-26T09:38:42.947Z,101196.09
2017-11-26T09:41:10.495Z,101196.92
2017-11-26T09:43:38.014Z,101196.73
2017-11-26T09:46:05.702Z,101199.14
2017-11-26T09:48:33.217Z,101195.39
2017-11-26T09:51:00.738Z,101192.30
2017-11-26T09:53:28.286Z,101197.66
2017-11-26T09:55:55.835Z,101201.88
2017-11-26T09:58:23.592Z,101195.41
2017-11-26T10:00:51.120Z,101190.38
2017-11-26T10:03:18.636Z,101191.77
2017-11-26T10:05:46.210Z,101186.90
2017-11-26T10:08:13.735Z,101190.41
2017-11-26T10:10:41.253Z,101185.16
2017-11-26T10:13:08.804Z,101194.17
2017-11-26T10:15:36.320Z,101186.19
2017-11-26T10:18:03.894Z,101180.60
2017-11-26T10:20:31.428Z,101188.48
2017-11-26T10:22:58.960Z,101184.06
2017-11-26T10:25:26.490Z,101189.23
2017-11-26T10:27:54.056Z,101182.50
2017-11-26T10:30:21.570Z,101187.94
2017-11-26T10:32:49.088Z,101182.20
2017-11-26T10:35:16.627Z,101186.03
2017-11-26T10:37:44.216Z,101184.47
2017-11-26T10:40:11.717Z,101194.55
2017-11-26T10:42:39.255Z,101197.98
2017-11-26T10:45:06.802Z,101201.72
2017-11-26T10:47:34.387Z,101196.47
2017-11-26T10:50:01.938Z,101193.75
2017-11-26T10:52:29.483Z,101197.78
2017-11-26T10:54:57.073Z,101192.47
2017-11-26T10:57:24.605Z,101197.06
2017-11-26T10:59:52.158Z,101196.20
2017-11-26T11:02:19.755Z,101197.99
2017-11-26T11:04:47.302Z,101201.53
2017-11-26T11:07:14.842Z,101195.63
2017-11-26T11:09:42.435Z,101192.69
2017-11-26T11:12:09.945Z,101189.83
2017-11-26T11:14:37.474Z,101194.97
2017-11-26T11:17:05.077Z,101192.41
2017-11-26T11:19:32.625Z,101197.92
2017-11-26T11:22:00.171Z,101188.94
2017-11-26T11:24:27.911Z,101195.47
2017-11-26T11:26:55.443Z,101195.91
2017-11-26T11:29:22.968Z,101196.73
2017-11-26T11:31:50.513Z,101199.94
2017-11-26T11:34:18.087Z,101195.91
2017-11-26T11:36:45.718Z,101206.08
2017-11-26T11:39:13.447Z,101210.27
2017-11-26T11:41:40.949Z,101216.05
2017-11-26T11:44:08.448Z,101210.54
2017-11-26T11:46:36.010Z,101213.08
2017-11-26T11:49:03.525Z,101213.54
2017-11-26T11:51:31.060Z,101219.05
2017-11-26T11:53:59.614Z,101225.88
2017-11-26T11:56:27.146Z,101218.80
2017-11-26T11:58:54.703Z,101222.40
2017-11-26T12:01:22.238Z,101225.73
2017-11-26T12:03:49.849Z,101236.82
2017-11-26T12:06:17.359Z,101233.49
2017-11-26T12:08:44.894Z,101243.20
2017-11-26T12:11:12.564Z,101241.86
2017-11-26T12:13:40.089Z,101233.72
2017-11-26T12:16:07.623Z,101237.37
2017-11-26T12:18:35.226Z,101239.16
2017-11-26T12:21:02.753Z,101240.98
2017-11-26T12:23:30.276Z,101236.14
2017-11-26T12:25:57.856Z,101243.33
2017-11-26T12:28:25.386Z,101251.73
2017-11-26T12:30:52.921Z,101244.25
2017-11-26T12:33:20.658Z,101254.36
2017-11-26T12:35:48.208Z,101250.63
2017-11-26T12:38:15.781Z,101251.92
2017-11-26T12:40:43.488Z,101256.98
2017-11-26T12:43:11.030Z,101252.56
2017-11-26T12:45:38.579Z,101256.81
2017-11-26T12:48:06.314Z,101245.85
2017-11-26T12:50:33.842Z,101253.05
2017-11-26T12:53:01.394Z,101253.47
2017-11-26T12:55:28.973Z,101252.59
2017-11-26T12:57:56.518Z,101258.79
2017-11-26T13:00:24.180Z,101262.22
2017-11-26T13:02:51.691Z,101255.67
2017-11-26T13:05:19.230Z,101263.38
2017-11-26T13:07:48.337Z,101257.66
2017-11-26T13:10:15.929Z,101259.73
2017-11-26T13:12:43.510Z,101269.03
2017-11-26T13:15:11.062Z,101265.78
2017-11-26T13:17:38.615Z,101264.92
2017-11-26T13:20:06.192Z,101274.95
2017-11-26T13:22:33.781Z,101270.44
2017-11-26T13:25:01.308Z,101276.52
2017-11-26T13:27:29.002Z,101279.52
2017-11-26T13:29:56.598Z,101278.48
2017-11-26T13:32:24.131Z,101283.84
2017-11-26T13:34:51.811Z,101284.36
2017-11-26T13:37:19.628Z,101284.92
2017-11-26T13:39:47.174Z,101279.21
2017-11-26T13:42:14.718Z,101277.56
2017-11-26T13:44:42.413Z,101293.05
2017-11-26T13:47:10.028Z,101285.59
2017-11-26T13:49:37.614Z,101287.82
2017-11-26T13:52:05.258Z,101279.42
2017-11-26T13:54:32.786Z,101283.81
2017-11-26T13:57:00.323Z,101280.67
2017-11-26T13:59:27.894Z,101285.63
2017-11-26T14:01:55.500Z,101284.92
2017-11-26T14:04:23.095Z,101285.78
2017-11-26T14:06:50.670Z,101289.52
2017-11-26T14:09:18.215Z,101290.67
2017-11-26T14:11:45.787Z,101302.72
2017-11-26T14:14:13.326Z,101303.05
2017-11-26T14:16:41.082Z,101304.52
2017-11-26T14:19:08.601Z,101311.80
2017-11-26T14:21:36.142Z,101312.83
2017-11-26T14:24:03.914Z,101313.88
2017-11-26T14:26:31.457Z,101320.63
2017-11-26T14:28:58.988Z,101321.61
2017-11-26T14:31:26.593Z,101320.44
2017-11-26T14:33:54.121Z,101324.66
2017-11-26T14:36:21.649Z,101321.24
2017-11-26T14:38:49.225Z,101321.70
2017-11-26T14:41:16.757Z,101324.23
2017-11-26T14:43:45.505Z,101322.38
2017-11-26T14:46:13.046Z,101327.83
2017-11-26T14:48:40.590Z,101335.12
2017-11-26T14:51:08.338Z,101336.52
2017-11-26T14:53:35.878Z,101338.87
2017-11-26T14:56:03.418Z,101345.66
2017-11-26T14:58:30.970Z,101340.25
2017-11-26T15:00:58.558Z,101342.42
2017-11-26T15:03:26.114Z,101350.20
2017-11-26T15:05:53.694Z,101343.05
2017-11-26T15:08:21.224Z,101335.70
2017-11-26T15:10:48.766Z,101340.30
2017-11-26T15:13:16.398Z,101340.55
2017-11-26T15:15:43.938Z,101351.97
2017-11-26T15:18:11.461Z,101343.96
2017-11-26T15:20:39.000Z,101340.74
2017-11-26T15:23:06.585Z,101345.70
2017-11-26T15:25:34.247Z,101344.88
2017-11-26T15:28:01.809Z,101348.96
2017-11-26T15:30:29.358Z,101349.91
2017-11-26T15:32:56.919Z,101347.61
2017-11-26T15:35:24.450Z,101347.78
2017-11-26T15:37:52.011Z,101350.41
2017-11-26T15:40:19.569Z,101354.70
2017-11-26T15:42:47.362Z,101345.91
2017-11-26T15:45:14.892Z,101349.44
2017-11-26T15:47:42.431Z,101350.61
2017-11-26T15:50:10.072Z,101346.60
2017-11-26T15:52:37.608Z,101356.58
2017-11-26T15:55:05.152Z,101356.15
2017-11-26T15:57:32.705Z,101359.03
2017-11-26T16:00:00.253Z,101362.76
2017-11-26T16:02:27.833Z,101367.77
2017-11-26T16:04:55.371Z,101380.17
2017-11-26T16:07:22.974Z,101399.34
2017-11-26T16:09:50.513Z,101399.41
2017-11-26T16:12:18.110Z,101402.61
2017-11-26T16:14:45.655Z,101404.61
2017-11-26T16:17:13.213Z,101401.73
2017-11-26T16:19:40.892Z,101412.59
2017-11-26T16:22:08.443Z,101411.84
2017-11-26T16:24:35.974Z,101414.61
2017-11-26T16:27:03.556Z,101410.37
2017-11-26T16:29:31.112Z,101413.19
2017-11-26T16:31:58.674Z,101403.88
2017-11-26T16:34:26.493Z,101398.55
2017-11-26T16:36:54.042Z,101393.66
2017-11-26T16:39:21.569Z,101392.46
2017-11-26T16:41:49.140Z,101393.02
2017-11-26T16:44:16.746Z,101386.70
2017-11-26T16:46:44.460Z,101397.66
2017-11-26T16:49:12.016Z,101390.02
2017-11-26T16:51:39.637Z,101386.84
2017-11-26T16:54:07.208Z,101390.08
2017-11-26T16:56:34.771Z,101395.35
2017-11-26T16:59:02.382Z,101396.02
2017-11-26T17:01:29.971Z,101405.45
2017-11-26T17:03:57.533Z,101414.77
2017-11-26T17:06:25.133Z,101422.75
2017-11-26T17:08:52.679Z,101434.27
2017-11-26T17:11:20.213Z,101432.20
2017-11-26T17:13:47.974Z,101426.85
2017-11-26T17:16:15.517Z,101440.36
2017-11-26T17:18:43.084Z,101442.29
2017-11-26T17:21:10.653Z,101438.81
2017-11-26T17:23:38.272Z,101417.08
2017-11-26T17:26:05.843Z,101392.81
2017-11-26T17:28:33.402Z,101416.33
2017-11-26T17:31:01.099Z,101419.09
2017-11-26T17:33:28.667Z,101418.48
2017-11-26T17:35:56.227Z,101427.68
2017-11-26T17:38:23.890Z,101434.69
2017-11-26T17:40:51.429Z,101434.41
2017-11-26T17:43:18.971Z,101440.81
2017-11-26T17:45:46.546Z,101437.95
2017-11-26T17:48:14.089Z,101438.94
2017-11-26T17:50:41.657Z,101436.53
2017-11-26T17:53:10.158Z,101439.92
2017-11-26T17:55:37.703Z,101437.59
2017-11-26T17:58:05.240Z,101447.90
2017-11-26T18:00:32.862Z,101444.14
2017-11-26T18:03:00.407Z,101437.02
2017-11-26T18:05:27.987Z,101445.00
2017-11-26T18:07:55.546Z,101444.94
2017-11-26T18:10:23.058Z,101448.41
2017-11-26T18:12:50.655Z,101445.25
2017-11-26T18:15:18.260Z,101448.75
2017-11-26T18:17:45.807Z,101453.84
2017-11-26T18:20:13.583Z,101446.31
2017-11-26T18:22:41.119Z,101443.83
2017-11-26T18:25:08.637Z,101437.30
2017-11-26T18:27:36.201Z,101440.67
2017-11-26T18:30:03.763Z,101438.14
2017-11-26T18:32:31.282Z,101440.44
2017-11-26T18:34:59.047Z,101448.88
2017-11-26T18:37:26.577Z,101441.73
2017-11-26T18:39:54.103Z,101451.44
2017-11-26T18:42:21.674Z,101458.67
2017-11-26T18:44:49.190Z,101458.75
2017-11-26T18:47:16.758Z,101461.40
2017-11-26T18:49:44.289Z,101468.16
2017-11-26T18:52:11.810Z,101463.27
2017-11-26T18:54:39.357Z,101466.23
2017-11-26T18:57:06.878Z,101466.21
2017-11-26T18:59:34.421Z,101467.53
2017-11-26T19:02:02.001Z,101476.55
2017-11-26T19:04:29.575Z,101475.18
2017-11-26T19:06:57.090Z,101480.67
2017-11-26T19:09:24.619Z,101479.56
2017-11-26T19:11:52.416Z,101473.09
2017-11-26T19:14:19.967Z,101481.91
2017-11-26T19:16:47.492Z,101481.20
2017-11-26T19:19:15.227Z,101488.08
2017-11-26T19:21:42.741Z,101479.81
2017-11-26T19:24:10.350Z,101486.52
2017-11-26T19:26:37.929Z,101486.49
2017-11-26T19:29:05.441Z,101483.19
2017-11-26T19:31:32.970Z,101481.45
2017-11-26T19:34:00.525Z,101492.77
2017-11-26T19:36:28.071Z,101488.02
2017-11-26T19:38:55.651Z,101483.29
2017-11-26T19:41:23.253Z,101490.13
2017-11-26T19:43:50.800Z,101484.95
2017-11-26T19:46:18.373Z,101478.42
2017-11-26T19:48:45.918Z,101481.53
2017-11-26T19:51:13.459Z,101488.05
2017-11-26T19:53:41.048Z,101485.20
2017-11-26T19:56:08.591Z,101485.46
2017-11-26T19:58:36.127Z,101485.80
2017-11-26T20:01:03.709Z,101476.04
2017-11-26T20:03:31.249Z,101482.41
2017-11-26T20:05:58.758Z,101478.47
2017-11-26T20:08:26.352Z,101475.25
2017-11-26T20:10:53.904Z,101476.20
2017-11-26T20:13:21.417Z,101482.37
2017-11-26T20:15:49.075Z,101484.05
2017-11-26T20:18:16.606Z,101487.41
2017-11-26T20:20:44.139Z,101479.28
2017-11-26T20:23:12.654Z,101470.61
2017-11-26T20:25:40.160Z,101472.88
2017-11-26T20:28:07.786Z,101480.86
2017-11-26T20:30:35.463Z,101478.51
2017-11-26T20:33:02.976Z,101474.98
2017-11-26T20:35:30.494Z,101474.58
2017-11-26T20:37:58.066Z,101482.41
2017-11-26T20:40:25.671Z,101475.81
2017-11-26T20:42:53.200Z,101473.31
2017-11-26T20:45:20.728Z,101481.94
2017-11-26T20:47:48.279Z,101489.09
2017-11-26T20:50:15.822Z,101487.67
2017-11-26T20:52:43.391Z,101484.17
2017-11-26T20:55:10.914Z,101475.98
2017-11-26T20:57:38.433Z,101470.87
2017-11-26T21:00:06.124Z,101469.08
2017-11-26T21:02:33.650Z,101467.78
2017-11-26T21:05:01.202Z,101463.91
2017-11-26T21:07:28.732Z,101460.91
2017-11-26T21:09:56.282Z,101461.99
2017-11-26T21:12:23.815Z,101458.92
2017-11-26T21:14:51.355Z,101462.95
2017-11-26T21:17:18.919Z,101461.42
2017-11-26T21:19:46.602Z,101461.20
2017-11-26T21:22:14.132Z,101466.34
2017-11-26T21:24:41.670Z,101460.23
2017-11-26T21:27:09.434Z,101458.78
2017-11-26T21:29:36.978Z,101462.00
2017-11-26T21:32:04.498Z,101463.41
2017-11-26T21:34:32.246Z,101465.97
2017-11-26T21:36:59.847Z,101456.50
2017-11-26T21:39:27.391Z,101459.22
2017-11-26T21:41:55.048Z,101458.72
2017-11-26T21:44:22.561Z,101463.19
2017-11-26T21:46:50.087Z,101469.30
2017-11-26T21:49:17.819Z,101465.65
2017-11-26T21:51:45.541Z,101457.05
2017-11-26T21:54:13.070Z,101460.41
2017-11-26T21:56:40.674Z,101456.23
2017-11-26T21:59:08.194Z,101453.47
2017-11-26T22:01:35.718Z,101467.02
2017-11-26T22:04:03.444Z,101466.86
2017-11-26T22:06:30.974Z,101456.91
2017-11-26T22:08:58.497Z,101460.25
2017-11-26T22:11:26.255Z,101458.50
2017-11-26T22:13:53.770Z,101462.92
2017-11-26T22:16:21.287Z,101466.56
2017-11-26T22:18:48.861Z,101463.03
2017-11-26T22:21:16.440Z,101464.91
2017-11-26T22:23:43.961Z,101472.96
2017-11-26T22:26:11.495Z,101465.95
2017-11-26T22:28:39.175Z,101469.69
2017-11-26T22:31:06.787Z,101474.09
2017-11-26T22:33:34.315Z,101467.17
2017-11-26T22:36:01.839Z,101476.89
2017-11-26T22:38:29.377Z,101473.98
2017-11-26T22:40:56.902Z,101463.77
2017-11-26T22:43:25.033Z,101462.50
2017-11-26T22:45:52.603Z,101460.87
2017-11-26T22:48:20.141Z,101459.92
2017-11-26T22:50:47.745Z,101467.26
2017-11-26T22:53:15.291Z,101465.35
2017-11-26T22:55:42.857Z,101467.63
2017-11-26T22:58:10.568Z,101461.92
2017-11-26T23:00:38.159Z,101467.83
2017-11-26T23:03:05.686Z,101461.56
2017-11-26T23:05:33.254Z,101473.45
2017-11-26T23:08:00.832Z,101474.25
2017-11-26T23:10:28.348Z,101469.89
2017-11-26T23:12:55.917Z,101467.73
2017-11-26T23:15:23.481Z,101456.73
2017-11-26T23:17:51.005Z,101464.55
2017-11-26T23:20:18.534Z,101465.25
2017-11-26T23:22:46.095Z,101458.27
2017-11-26T23:25:13.619Z,101461.01
2017-11-26T23:27:41.196Z,101450.70
2017-11-26T23:30:08.803Z,101446.99
2017-11-26T23:32:36.386Z,101442.60
2017-11-26T23:35:04.147Z,101447.62
2017-11-26T23:37:31.698Z,101447.38
2017-11-26T23:39:59.238Z,101442.37
2017-11-26T23:42:26.979Z,101435.34
2017-11-26T23:44:54.511Z,101441.38
2017-11-26T23:47:22.066Z,101446.50
2017-11-26T23:49:49.785Z,101441.66
2017-11-26T23:52:17.419Z,101449.61
2017-11-26T23:54:44.946Z,101446.77
2017-11-26T23:57:12.497Z,101449.22
2017-11-26T23:59:40.017Z,101438.41
